Berriz Irigoien — EAEC — position and weather

sailwx.info

Track history (hours):
 
Tides and Currents Weather Stations Pressure Air Temp Water Temp Dewpoint Dewpoint Depression Visibility Wind Speed Wind Dir Waves Ship Positions

Berriz Irigoien

Last reported at 2018-Apr-20 13:34 UTC. Time now 2018-Apr-20 18:39 UTC.
Position N 43°20' W 002°10'.

Length 35 m; draft 2.3 m.

Type: Fishing. MMSI: 224018460.

Date/timePositionNaut miles runAvg speedWind from/ knotsBaromVisibWave heightAir tempDewpointWater temp
2018-Apr-20 13:34N 43°20' W 002°10'111.0
2018-Apr-20 13:30N 43°21' W 002°10'711.0
2018-Apr-20 12:54N 43°27' W 002°08'72 4.7
2018-Apr-19 21:20N 44°39' W 001°50'6510.3
2018-Apr-19 14:58N 43°34' W 002°06'16 2.4
2018-Apr-19 08:32N 43°50' W 002°01'110.8
2018-Apr-19 08:29N 43°50' W 002°01'3511.1
2018-Apr-19 05:21N 44°24' W 001°50'410.8
2018-Apr-19 04:56N 44°28' W 001°49'510.9
2018-Apr-19 04:30N 44°33' W 001°47'510.6
2018-Apr-19 04:00N 44°38' W 001°46'2 3.7
2018-Apr-19 03:30N 44°40' W 001°45'0 0.3
2018-Apr-19 03:00N 44°40' W 001°45'0 0.3
2018-Apr-19 02:30N 44°40' W 001°45'0 0.8
2018-Apr-19 02:00N 44°40' W 001°46'3 4.9
2018-Apr-19 01:30N 44°41' W 001°49'1 0.5
2018-Apr-19 00:02N 44°41' W 001°50'0 0.3
2018-Apr-18 23:43N 44°41' W 001°50'0 0.1
2018-Apr-18 22:31N 44°41' W 001°50'2 7.6
2018-Apr-18 22:12N 44°39' W 001°52'30 1.8
2018-Apr-18 05:52N 44°09' W 001°60'410.2
2018-Apr-18 05:28N 44°13' W 001°59'710.1
2018-Apr-18 04:46N 44°20' W 001°58'810.2
2018-Apr-18 04:00N 44°28' W 001°55'1 1.9
2018-Apr-18 03:30N 44°28' W 001°54'0 0.3
2018-Apr-18 02:59N 44°28' W 001°54'1 3.0
2018-Apr-18 02:29N 44°27' W 001°52'3 6.2
2018-Apr-18 02:00N 44°25' W 001°51'1 2.8
2018-Apr-18 01:29N 44°23' W 001°50'3 5.5
2018-Apr-18 00:59N 44°26' W 001°50'3 5.3
2018-Apr-18 00:30N 44°28' W 001°50'4 8.0
2018-Apr-18 00:00N 44°32' W 001°47'4 7.0
2018-Apr-17 23:30N 44°28' W 001°45'2 4.9
2018-Apr-17 23:00N 44°27' W 001°48'3 6.4
2018-Apr-17 22:30N 44°25' W 001°51'1 2.3
2018-Apr-17 21:55N 44°24' W 001°53'0 0.8
2018-Apr-17 21:29N 44°24' W 001°53'1 0.8
2018-Apr-17 20:41N 44°25' W 001°52'0 0.4
2018-Apr-17 20:23N 44°25' W 001°52'1 1.1
2018-Apr-17 19:21N 44°24' W 001°53'38 2.0
2018-Apr-17 00:19N 43°46' W 001°50'0 0.3
2018-Apr-16 23:51N 43°46' W 001°50'0 0.3
2018-Apr-16 23:29N 43°46' W 001°50'0 0.3
2018-Apr-16 22:40N 43°46' W 001°49'0 0.3
2018-Apr-16 22:30N 43°46' W 001°49'0 0.3
2018-Apr-16 22:00N 43°46' W 001°49'0 0.2
2018-Apr-16 21:30N 43°46' W 001°49'  
2018-Apr-13 04:45N 43°25' W 002°21'2 8.3
2018-Apr-13 04:30N 43°25' W 002°23'23 0.5
2018-Apr-11 06:07N 43°30' W 001°53'2 8.8
2018-Apr-11 05:54N 43°32' W 001°51'5 9.0
2018-Apr-11 05:20N 43°36' W 001°47'3 0.2
2018-Apr-10 16:15N 43°38' W 001°44'  
Track history (hours):
 
Tides and Currents Weather Stations Pressure Air Temp Water Temp Dewpoint Dewpoint Depression Visibility Wind Speed Wind Dir Waves Ship Positions

Berriz Irigoien

Last reported at 2018-Apr-20 13:34 UTC. Time now 2018-Apr-20 18:39 UTC.
Position N 43°20' W 002°10'.

Length 35 m; draft 2.3 m.

Type: Fishing. MMSI: 224018460.

Date/timePositionNaut miles runAvg speedWind from/ knotsBaromVisibWave heightAir tempDewpointWater temp
2018-Apr-20 13:34N 43°20' W 002°10'111.0
2018-Apr-20 13:30N 43°21' W 002°10'711.0
2018-Apr-20 12:54N 43°27' W 002°08'72 4.7
2018-Apr-19 21:20N 44°39' W 001°50'6510.3
2018-Apr-19 14:58N 43°34' W 002°06'16 2.4
2018-Apr-19 08:32N 43°50' W 002°01'110.8
2018-Apr-19 08:29N 43°50' W 002°01'3511.1
2018-Apr-19 05:21N 44°24' W 001°50'410.8
2018-Apr-19 04:56N 44°28' W 001°49'510.9
2018-Apr-19 04:30N 44°33' W 001°47'510.6
2018-Apr-19 04:00N 44°38' W 001°46'2 3.7
2018-Apr-19 03:30N 44°40' W 001°45'0 0.3
2018-Apr-19 03:00N 44°40' W 001°45'0 0.3
2018-Apr-19 02:30N 44°40' W 001°45'0 0.8
2018-Apr-19 02:00N 44°40' W 001°46'3 4.9
2018-Apr-19 01:30N 44°41' W 001°49'1 0.5
2018-Apr-19 00:02N 44°41' W 001°50'0 0.3
2018-Apr-18 23:43N 44°41' W 001°50'0 0.1
2018-Apr-18 22:31N 44°41' W 001°50'2 7.6
2018-Apr-18 22:12N 44°39' W 001°52'30 1.8
2018-Apr-18 05:52N 44°09' W 001°60'410.2
2018-Apr-18 05:28N 44°13' W 001°59'710.1
2018-Apr-18 04:46N 44°20' W 001°58'810.2
2018-Apr-18 04:00N 44°28' W 001°55'1 1.9
2018-Apr-18 03:30N 44°28' W 001°54'0 0.3
2018-Apr-18 02:59N 44°28' W 001°54'1 3.0
2018-Apr-18 02:29N 44°27' W 001°52'3 6.2
2018-Apr-18 02:00N 44°25' W 001°51'1 2.8
2018-Apr-18 01:29N 44°23' W 001°50'3 5.5
2018-Apr-18 00:59N 44°26' W 001°50'3 5.3
2018-Apr-18 00:30N 44°28' W 001°50'4 8.0
2018-Apr-18 00:00N 44°32' W 001°47'4 7.0
2018-Apr-17 23:30N 44°28' W 001°45'2 4.9
2018-Apr-17 23:00N 44°27' W 001°48'3 6.4
2018-Apr-17 22:30N 44°25' W 001°51'1 2.3
2018-Apr-17 21:55N 44°24' W 001°53'0 0.8
2018-Apr-17 21:29N 44°24' W 001°53'1 0.8
2018-Apr-17 20:41N 44°25' W 001°52'0 0.4
2018-Apr-17 20:23N 44°25' W 001°52'1 1.1
2018-Apr-17 19:21N 44°24' W 001°53'38 2.0
2018-Apr-17 00:19N 43°46' W 001°50'0 0.3
2018-Apr-16 23:51N 43°46' W 001°50'0 0.3
2018-Apr-16 23:29N 43°46' W 001°50'0 0.3
2018-Apr-16 22:40N 43°46' W 001°49'0 0.3
2018-Apr-16 22:30N 43°46' W 001°49'0 0.3
2018-Apr-16 22:00N 43°46' W 001°49'0 0.2
2018-Apr-16 21:30N 43°46' W 001°49'  
2018-Apr-13 04:45N 43°25' W 002°21'2 8.3
2018-Apr-13 04:30N 43°25' W 002°23'23 0.5
2018-Apr-11 06:07N 43°30' W 001°53'2 8.8
2018-Apr-11 05:54N 43°32' W 001°51'5 9.0
2018-Apr-11 05:20N 43°36' W 001°47'3 0.2
2018-Apr-10 16:15N 43°38' W 001°44'  

Dump ship's entire track history